sensor_id;sensor_type;location;lat;lon;timestamp;pressure;altitude;pressure_sealevel;temperature;humidity
55038;BME280;40937;53.594;10.034;2022-08-05T00:01:10;77174.06;;;-147.20;61.56
55038;BME280;40937;53.594;10.034;2022-08-05T00:03:37;77180.13;;;-147.20;61.53
55038;BME280;40937;53.594;10.034;2022-08-05T00:06:04;77180.13;;;-147.20;61.78
55038;BME280;40937;53.594;10.034;2022-08-05T00:08:30;77190.22;;;-147.20;61.52
55038;BME280;40937;53.594;10.034;2022-08-05T00:10:57;77194.25;;;-147.20;61.26
55038;BME280;40937;53.594;10.034;2022-08-05T00:13:26;77194.25;;;-147.20;60.71
55038;BME280;40937;53.594;10.034;2022-08-05T00:15:52;77204.34;;;-147.20;60.56
55038;BME280;40937;53.594;10.034;2022-08-05T00:18:19;77224.53;;;-147.20;60.13
55038;BME280;40937;53.594;10.034;2022-08-05T00:20:46;77218.50;;;-147.20;60.09
55038;BME280;40937;53.594;10.034;2022-08-05T00:23:12;77224.53;;;-147.20;60.00
55038;BME280;40937;53.594;10.034;2022-08-05T00:25:39;77218.50;;;-147.20;59.84
55038;BME280;40937;53.594;10.034;2022-08-05T00:28:06;77228.56;;;-147.20;60.02
55038;BME280;40937;53.594;10.034;2022-08-05T00:30:33;77224.53;;;-147.20;59.82
55038;BME280;40937;53.594;10.034;2022-08-05T00:33:00;77246.75;;;-147.20;59.76
55038;BME280;40937;53.594;10.034;2022-08-05T00:35:27;77238.66;;;-147.20;59.31
55038;BME280;40937;53.594;10.034;2022-08-05T00:37:54;77242.72;;;-147.20;58.83
55038;BME280;40937;53.594;10.034;2022-08-05T00:40:22;77232.63;;;-147.20;58.33
55038;BME280;40937;53.594;10.034;2022-08-05T00:42:49;77222.53;;;-147.20;58.12
55038;BME280;40937;53.594;10.034;2022-08-05T00:45:16;77240.69;;;-147.20;57.53
55038;BME280;40937;53.594;10.034;2022-08-05T00:47:45;77254.81;;;-147.20;57.46
55038;BME280;40937;53.594;10.034;2022-08-05T00:50:11;77258.84;;;-147.20;57.25
55038;BME280;40937;53.594;10.034;2022-08-05T00:52:38;77254.81;;;-147.20;56.95
55038;BME280;40937;53.594;10.034;2022-08-05T00:55:05;77266.94;;;-147.20;57.04
55038;BME280;40937;53.594;10.034;2022-08-05T00:57:32;77275.00;;;-147.20;56.76
55038;BME280;40937;53.594;10.034;2022-08-05T00:59:58;77258.84;;;-147.20;56.01
55038;BME280;40937;53.594;10.034;2022-08-05T01:02:25;77285.09;;;-147.20;56.09
55038;BME280;40937;53.594;10.034;2022-08-05T01:04:53;77297.22;;;-147.20;56.36
55038;BME280;40937;53.594;10.034;2022-08-05T01:07:19;77297.22;;;-147.20;56.24
55038;BME280;40937;53.594;10.034;2022-08-05T01:09:46;77311.34;;;-147.20;56.38
55038;BME280;40937;53.594;10.034;2022-08-05T01:12:16;77305.28;;;-147.20;56.06
55038;BME280;40937;53.594;10.034;2022-08-05T01:14:47;77283.09;;;-147.20;55.63
55038;BME280;40937;53.594;10.034;2022-08-05T01:17:21;77289.13;;;-147.20;55.62
55038;BME280;40937;53.594;10.034;2022-08-05T01:20:02;77301.25;;;-147.20;55.73
55038;BME280;40937;53.594;10.034;2022-08-05T01:22:42;77297.22;;;-147.20;55.42
55038;BME280;40937;53.594;10.034;2022-08-05T01:25:37;77287.13;;;-147.20;55.05
55038;BME280;40937;53.594;10.034;2022-08-05T01:28:16;77293.19;;;-147.20;54.97
55038;BME280;40937;53.594;10.034;2022-08-05T01:30:47;77281.06;;;-147.20;55.03
55038;BME280;40937;53.594;10.034;2022-08-05T01:33:17;77279.03;;;-147.20;55.08
55038;BME280;40937;53.594;10.034;2022-08-05T01:35:48;77277.03;;;-147.20;55.44
55038;BME280;40937;53.594;10.034;2022-08-05T01:38:17;77260.88;;;-147.20;55.04
55038;BME280;40937;53.594;10.034;2022-08-05T01:40:45;77256.84;;;-147.20;54.99
55038;BME280;40937;53.594;10.034;2022-08-05T01:43:15;77256.84;;;-147.20;55.17
55038;BME280;40937;53.594;10.034;2022-08-05T01:45:43;77264.91;;;-147.20;55.19
55038;BME280;40937;53.594;10.034;2022-08-05T01:48:10;77264.91;;;-147.20;55.20
55038;BME280;40937;53.594;10.034;2022-08-05T01:50:38;77260.88;;;-147.20;55.15
55038;BME280;40937;53.594;10.034;2022-08-05T01:53:10;77254.81;;;-147.20;55.12
55038;BME280;40937;53.594;10.034;2022-08-05T01:55:38;77240.69;;;-147.20;55.08
55038;BME280;40937;53.594;10.034;2022-08-05T01:58:06;77224.53;;;-147.20;55.04
55038;BME280;40937;53.594;10.034;2022-08-05T02:00:39;77224.53;;;-147.20;55.00
55038;BME280;40937;53.594;10.034;2022-08-05T02:03:11;77216.47;;;-147.20;54.64
55038;BME280;40937;53.594;10.034;2022-08-05T02:05:39;77220.50;;;-147.20;54.71
55038;BME280;40937;53.594;10.034;2022-08-05T02:08:08;77222.53;;;-147.20;54.39
55038;BME280;40937;53.594;10.034;2022-08-05T02:10:39;77232.63;;;-147.20;54.60
55038;BME280;40937;53.594;10.034;2022-08-05T02:13:12;77236.66;;;-147.20;54.63
55038;BME280;40937;53.594;10.034;2022-08-05T02:15:44;77238.66;;;-147.20;54.74
55038;BME280;40937;53.594;10.034;2022-08-05T02:18:15;77220.50;;;-147.20;54.77
55038;BME280;40937;53.594;10.034;2022-08-05T02:20:47;77218.50;;;-147.20;54.47
55038;BME280;40937;53.594;10.034;2022-08-05T02:23:18;77214.44;;;-147.20;54.44
55038;BME280;40937;53.594;10.034;2022-08-05T02:25:48;77200.31;;;-147.20;54.54
55038;BME280;40937;53.594;10.034;2022-08-05T02:28:22;77204.34;;;-147.20;54.43
55038;BME280;40937;53.594;10.034;2022-08-05T02:30:55;77208.41;;;-147.20;55.19
55038;BME280;40937;53.594;10.034;2022-08-05T02:33:24;77214.44;;;-147.20;55.54
55038;BME280;40937;53.594;10.034;2022-08-05T02:35:52;77220.50;;;-147.20;55.44
55038;BME280;40937;53.594;10.034;2022-08-05T02:38:22;77220.50;;;-147.20;55.66
55038;BME280;40937;53.594;10.034;2022-08-05T02:40:50;77216.47;;;-147.20;55.01
55038;BME280;40937;53.594;10.034;2022-08-05T02:43:19;77244.72;;;-147.20;54.98
55038;BME280;40937;53.594;10.034;2022-08-05T02:45:46;77303.28;;;-147.20;55.19
55038;BME280;40937;53.594;10.034;2022-08-05T02:48:16;77319.41;;;-147.20;55.00
55038;BME280;40937;53.594;10.034;2022-08-05T02:50:45;77297.22;;;-147.20;57.66
55038;BME280;40937;53.594;10.034;2022-08-05T02:53:14;77285.09;;;-147.20;59.09
55038;BME280;40937;53.594;10.034;2022-08-05T02:55:43;77301.25;;;-147.20;60.14
55038;BME280;40937;53.594;10.034;2022-08-05T02:58:13;77277.03;;;-147.20;59.89
55038;BME280;40937;53.594;10.034;2022-08-05T03:00:41;77285.09;;;-147.20;60.91
55038;BME280;40937;53.594;10.034;2022-08-05T03:03:12;77287.13;;;-147.20;61.73
55038;BME280;40937;53.594;10.034;2022-08-05T03:05:41;77301.25;;;-147.20;61.83
55038;BME280;40937;53.594;10.034;2022-08-05T03:08:09;77309.31;;;-147.20;62.12
55038;BME280;40937;53.594;10.034;2022-08-05T03:10:36;77309.31;;;-147.20;62.92
55038;BME280;40937;53.594;10.034;2022-08-05T03:13:10;77319.41;;;-147.20;63.41
55038;BME280;40937;53.594;10.034;2022-08-05T03:15:37;77337.59;;;-147.20;63.24
55038;BME280;40937;53.594;10.034;2022-08-05T03:18:06;77321.44;;;-147.20;64.00
55038;BME280;40937;53.594;10.034;2022-08-05T03:20:33;77317.41;;;-147.20;63.28
55038;BME280;40937;53.594;10.034;2022-08-05T03:23:01;77329.50;;;-147.20;63.89
55038;BME280;40937;53.594;10.034;2022-08-05T03:25:30;77345.66;;;-147.20;63.80
55038;BME280;40937;53.594;10.034;2022-08-05T03:27:57;77361.81;;;-147.20;63.08
55038;BME280;40937;53.594;10.034;2022-08-05T03:30:26;77361.81;;;-147.20;63.76
55038;BME280;40937;53.594;10.034;2022-08-05T03:32:53;77365.84;;;-147.20;63.75
55038;BME280;40937;53.594;10.034;2022-08-05T03:35:20;77377.97;;;-147.20;64.62
55038;BME280;40937;53.594;10.034;2022-08-05T03:37:47;77382.00;;;-147.20;64.94
55038;BME280;40937;53.594;10.034;2022-08-05T03:40:15;77394.13;;;-147.20;64.71
55038;BME280;40937;53.594;10.034;2022-08-05T03:42:42;77390.06;;;-147.20;64.41
55038;BME280;40937;53.594;10.034;2022-08-05T03:45:09;77398.16;;;-147.20;63.77
55038;BME280;40937;53.594;10.034;2022-08-05T03:47:35;77392.09;;;-147.20;63.56
55038;BME280;40937;53.594;10.034;2022-08-05T03:50:02;77396.13;;;-147.20;64.39
55038;BME280;40937;53.594;10.034;2022-08-05T03:52:32;77396.13;;;-147.20;64.79
55038;BME280;40937;53.594;10.034;2022-08-05T03:55:03;77386.03;;;-147.20;64.40
55038;BME280;40937;53.594;10.034;2022-08-05T03:57:37;77384.03;;;-147.20;64.50
55038;BME280;40937;53.594;10.034;2022-08-05T04:00:07;77390.06;;;-147.20;64.67
55038;BME280;40937;53.594;10.034;2022-08-05T04:02:42;77394.13;;;-147.20;65.37
55038;BME280;40937;53.594;10.034;2022-08-05T04:05:11;77394.13;;;-147.20;65.14
55038;BME280;40937;53.594;10.034;2022-08-05T04:07:39;77406.22;;;-147.20;65.05
55038;BME280;40937;53.594;10.034;2022-08-05T04:10:07;77408.25;;;-147.20;65.11
55038;BME280;40937;53.594;10.034;2022-08-05T04:12:36;77414.31;;;-147.20;65.27
55038;BME280;40937;53.594;10.034;2022-08-05T04:15:04;77410.25;;;-147.20;65.37
55038;BME280;40937;53.594;10.034;2022-08-05T04:17:32;77402.19;;;-147.20;64.61
55038;BME280;40937;53.594;10.034;2022-08-05T04:19:59;77410.25;;;-147.20;64.49
55038;BME280;40937;53.594;10.034;2022-08-05T04:22:26;77418.34;;;-147.20;64.79
55038;BME280;40937;53.594;10.034;2022-08-05T04:24:52;77424.41;;;-147.20;65.22
55038;BME280;40937;53.594;10.034;2022-08-05T04:27:19;77420.34;;;-147.20;65.31
55038;BME280;40937;53.594;10.034;2022-08-05T04:29:47;77426.41;;;-147.20;64.89
55038;BME280;40937;53.594;10.034;2022-08-05T04:32:14;77438.53;;;-147.20;65.02
55038;BME280;40937;53.594;10.034;2022-08-05T04:34:40;77442.56;;;-147.20;64.93
55038;BME280;40937;53.594;10.034;2022-08-05T04:37:07;77444.59;;;-147.20;65.29
55038;BME280;40937;53.594;10.034;2022-08-05T04:39:34;77448.63;;;-147.20;65.50
55038;BME280;40937;53.594;10.034;2022-08-05T04:42:00;77450.63;;;-147.20;65.33
55038;BME280;40937;53.594;10.034;2022-08-05T04:44:27;77444.59;;;-147.20;65.07
55038;BME280;40937;53.594;10.034;2022-08-05T04:46:55;77454.69;;;-147.20;65.06
55038;BME280;40937;53.594;10.034;2022-08-05T04:49:22;77462.75;;;-147.20;64.67
55038;BME280;40937;53.594;10.034;2022-08-05T04:51:48;77464.78;;;-147.20;64.67
55038;BME280;40937;53.594;10.034;2022-08-05T04:54:15;77468.81;;;-147.20;64.72
55038;BME280;40937;53.594;10.034;2022-08-05T04:56:44;77472.84;;;-147.20;64.67
55038;BME280;40937;53.594;10.034;2022-08-05T04:59:11;77478.91;;;-147.20;65.00
55038;BME280;40937;53.594;10.034;2022-08-05T05:01:40;77493.03;;;-147.20;65.22
55038;BME280;40937;53.594;10.034;2022-08-05T05:04:08;77493.03;;;-147.20;65.09
55038;BME280;40937;53.594;10.034;2022-08-05T05:06:34;77499.09;;;-147.20;65.04
55038;BME280;40937;53.594;10.034;2022-08-05T05:09:01;77511.22;;;-147.20;65.05
55038;BME280;40937;53.594;10.034;2022-08-05T05:11:28;77511.22;;;-147.20;64.87
55038;BME280;40937;53.594;10.034;2022-08-05T05:13:54;77515.25;;;-147.20;64.69
55038;BME280;40937;53.594;10.034;2022-08-05T05:16:21;77511.22;;;-147.20;64.52
55038;BME280;40937;53.594;10.034;2022-08-05T05:18:48;77499.09;;;-147.20;64.49
55038;BME280;40937;53.594;10.034;2022-08-05T05:21:16;77503.13;;;-147.20;64.22
55038;BME280;40937;53.594;10.034;2022-08-05T05:23:42;77503.13;;;-147.20;64.13
55038;BME280;40937;53.594;10.034;2022-08-05T05:26:09;77499.09;;;-147.20;64.25
55038;BME280;40937;53.594;10.034;2022-08-05T05:28:36;77495.06;;;-147.20;64.24
55038;BME280;40937;53.594;10.034;2022-08-05T05:31:02;77491.03;;;-147.20;63.98
55038;BME280;40937;53.594;10.034;2022-08-05T05:33:30;77491.03;;;-147.20;64.40
55038;BME280;40937;53.594;10.034;2022-08-05T05:35:57;77484.97;;;-147.20;64.38
55038;BME280;40937;53.594;10.034;2022-08-05T05:38:25;77486.97;;;-147.20;64.55
55038;BME280;40937;53.594;10.034;2022-08-05T05:40:51;77495.06;;;-147.20;63.88
55038;BME280;40937;53.594;10.034;2022-08-05T05:43:18;77493.03;;;-147.20;63.98
55038;BME280;40937;53.594;10.034;2022-08-05T05:45:47;77491.03;;;-147.20;63.80
55038;BME280;40937;53.594;10.034;2022-08-05T05:48:14;77497.06;;;-147.20;64.65
55038;BME280;40937;53.594;10.034;2022-08-05T05:50:40;77495.06;;;-147.20;64.58
55038;BME280;40937;53.594;10.034;2022-08-05T05:53:07;77489.00;;;-147.20;65.18
55038;BME280;40937;53.594;10.034;2022-08-05T05:55:36;77491.03;;;-147.20;65.00
55038;BME280;40937;53.594;10.034;2022-08-05T05:58:02;77484.97;;;-147.20;64.58
55038;BME280;40937;53.594;10.034;2022-08-05T06:00:29;77482.94;;;-147.20;64.48
55038;BME280;40937;53.594;10.034;2022-08-05T06:02:56;77497.06;;;-147.20;64.62
55038;BME280;40937;53.594;10.034;2022-08-05T06:05:22;77511.22;;;-147.20;63.83
55038;BME280;40937;53.594;10.034;2022-08-05T06:07:49;77513.22;;;-147.20;64.10
55038;BME280;40937;53.594;10.034;2022-08-05T06:10:16;77521.31;;;-147.20;64.33
55038;BME280;40937;53.594;10.034;2022-08-05T06:12:44;77515.25;;;-147.20;64.53
55038;BME280;40937;53.594;10.034;2022-08-05T06:15:11;77513.22;;;-147.20;64.42
55038;BME280;40937;53.594;10.034;2022-08-05T06:17:37;77515.25;;;-147.20;64.91
55038;BME280;40937;53.594;10.034;2022-08-05T06:20:05;77509.19;;;-147.20;65.27
55038;BME280;40937;53.594;10.034;2022-08-05T06:22:33;77517.25;;;-147.20;65.24
55038;BME280;40937;53.594;10.034;2022-08-05T06:25:00;77503.13;;;-147.20;65.02
55038;BME280;40937;53.594;10.034;2022-08-05T06:27:27;77495.06;;;-147.20;65.21
55038;BME280;40937;53.594;10.034;2022-08-05T06:29:55;77491.03;;;-147.20;64.96
55038;BME280;40937;53.594;10.034;2022-08-05T06:32:21;77501.13;;;-147.20;64.92
55038;BME280;40937;53.594;10.034;2022-08-05T06:34:48;77497.06;;;-147.20;64.42
55038;BME280;40937;53.594;10.034;2022-08-05T06:37:15;77501.13;;;-147.20;64.74
55038;BME280;40937;53.594;10.034;2022-08-05T06:39:41;77497.06;;;-147.20;64.85
55038;BME280;40937;53.594;10.034;2022-08-05T06:42:08;77486.97;;;-147.20;64.26
55038;BME280;40937;53.594;10.034;2022-08-05T06:44:35;77474.88;;;-147.20;64.64
55038;BME280;40937;53.594;10.034;2022-08-05T06:47:03;77468.81;;;-147.20;64.21
55038;BME280;40937;53.594;10.034;2022-08-05T06:49:30;77464.78;;;-147.20;63.92
55038;BME280;40937;53.594;10.034;2022-08-05T06:51:56;77468.81;;;-147.20;63.89
55038;BME280;40937;53.594;10.034;2022-08-05T06:54:23;77468.81;;;-147.20;63.70
55038;BME280;40937;53.594;10.034;2022-08-05T06:56:50;77462.75;;;-147.20;63.43
55038;BME280;40937;53.594;10.034;2022-08-05T06:59:16;77462.75;;;-147.20;62.96
55038;BME280;40937;53.594;10.034;2022-08-05T07:01:43;77460.75;;;-147.20;62.68
55038;BME280;40937;53.594;10.034;2022-08-05T07:04:11;77466.78;;;-147.20;62.95
55038;BME280;40937;53.594;10.034;2022-08-05T07:06:38;77458.72;;;-147.20;62.87
55038;BME280;40937;53.594;10.034;2022-08-05T07:09:05;77450.63;;;-147.20;63.11
55038;BME280;40937;53.594;10.034;2022-08-05T07:11:32;77448.63;;;-147.20;62.23
55038;BME280;40937;53.594;10.034;2022-08-05T07:13:59;77442.56;;;-147.20;61.91
55038;BME280;40937;53.594;10.034;2022-08-05T07:16:43;77446.59;;;-147.20;61.85
55038;BME280;40937;53.594;10.034;2022-08-05T07:19:18;77444.59;;;-147.20;61.78
55038;BME280;40937;53.594;10.034;2022-08-05T07:21:46;77432.47;;;-147.20;61.67
55038;BME280;40937;53.594;10.034;2022-08-05T07:24:13;77434.50;;;-147.20;61.68
55038;BME280;40937;53.594;10.034;2022-08-05T07:26:40;77432.47;;;-147.20;61.93
55038;BME280;40937;53.594;10.034;2022-08-05T07:29:07;77428.44;;;-147.20;61.68
55038;BME280;40937;53.594;10.034;2022-08-05T07:31:34;77426.41;;;-147.20;61.95
55038;BME280;40937;53.594;10.034;2022-08-05T07:34:01;77440.53;;;-147.20;61.99
55038;BME280;40937;53.594;10.034;2022-08-05T07:36:29;77434.50;;;-147.20;62.56
55038;BME280;40937;53.594;10.034;2022-08-05T07:38:58;77438.53;;;-147.20;62.58
55038;BME280;40937;53.594;10.034;2022-08-05T07:41:25;77436.50;;;-147.20;61.93
55038;BME280;40937;53.594;10.034;2022-08-05T07:43:52;77444.59;;;-147.20;61.68
55038;BME280;40937;53.594;10.034;2022-08-05T07:46:19;77434.50;;;-147.20;61.24
55038;BME280;40937;53.594;10.034;2022-08-05T07:48:45;77432.47;;;-147.20;61.09
55038;BME280;40937;53.594;10.034;2022-08-05T07:51:12;77426.41;;;-147.20;61.21
55038;BME280;40937;53.594;10.034;2022-08-05T07:53:41;77420.34;;;-147.20;61.01
55038;BME280;40937;53.594;10.034;2022-08-05T07:56:08;77414.31;;;-147.20;61.31
55038;BME280;40937;53.594;10.034;2022-08-05T07:58:35;77426.41;;;-147.20;61.90
55038;BME280;40937;53.594;10.034;2022-08-05T08:01:02;77432.47;;;-147.20;61.88
55038;BME280;40937;53.594;10.034;2022-08-05T08:03:28;77430.47;;;-147.20;61.97
55038;BME280;40937;53.594;10.034;2022-08-05T08:05:55;77440.53;;;-147.20;62.89
55038;BME280;40937;53.594;10.034;2022-08-05T08:08:22;77424.41;;;-147.20;62.56
55038;BME280;40937;53.594;10.034;2022-08-05T08:10:50;77420.34;;;-147.20;62.93
55038;BME280;40937;53.594;10.034;2022-08-05T08:13:19;77422.38;;;-147.20;62.82
55038;BME280;40937;53.594;10.034;2022-08-05T08:15:46;77434.50;;;-147.20;63.93
55038;BME280;40937;53.594;10.034;2022-08-05T08:18:13;77440.53;;;-147.20;64.41
55038;BME280;40937;53.594;10.034;2022-08-05T08:20:40;77440.53;;;-147.20;64.24
55038;BME280;40937;53.594;10.034;2022-08-05T08:23:06;77432.47;;;-147.20;64.37
55038;BME280;40937;53.594;10.034;2022-08-05T08:25:33;77436.50;;;-147.20;65.37
55038;BME280;40937;53.594;10.034;2022-08-05T08:28:01;77440.53;;;-147.20;64.47
55038;BME280;40937;53.594;10.034;2022-08-05T08:30:28;77442.56;;;-147.20;64.59
55038;BME280;40937;53.594;10.034;2022-08-05T08:32:55;77434.50;;;-147.20;64.03
55038;BME280;40937;53.594;10.034;2022-08-05T08:35:21;77428.44;;;-147.20;64.27
55038;BME280;40937;53.594;10.034;2022-08-05T08:37:48;77438.53;;;-147.20;64.19
55038;BME280;40937;53.594;10.034;2022-08-05T08:40:15;77430.47;;;-147.20;65.13
55038;BME280;40937;53.594;10.034;2022-08-05T08:42:47;77440.53;;;-147.20;64.74
55038;BME280;40937;53.594;10.034;2022-08-05T08:45:18;77438.53;;;-147.20;64.09
55038;BME280;40937;53.594;10.034;2022-08-05T08:47:48;77444.59;;;-147.20;64.90
55038;BME280;40937;53.594;10.034;2022-08-05T08:50:17;77452.66;;;-147.20;64.57
55038;BME280;40937;53.594;10.034;2022-08-05T08:52:49;77446.59;;;-147.20;63.54
55038;BME280;40937;53.594;10.034;2022-08-05T08:55:16;77452.66;;;-147.20;64.12
55038;BME280;40937;53.594;10.034;2022-08-05T08:57:44;77438.53;;;-147.20;63.17
55038;BME280;40937;53.594;10.034;2022-08-05T09:00:12;77440.53;;;-147.20;62.78
55038;BME280;40937;53.594;10.034;2022-08-05T09:02:41;77454.69;;;-147.20;62.57
55038;BME280;40937;53.594;10.034;2022-08-05T09:05:10;77462.75;;;-147.20;61.79
55038;BME280;40937;53.594;10.034;2022-08-05T09:07:37;77468.81;;;-147.20;61.92
55038;BME280;40937;53.594;10.034;2022-08-05T09:10:04;77466.78;;;-147.20;61.53
55038;BME280;40937;53.594;10.034;2022-08-05T09:12:31;77484.97;;;-147.20;61.51
55038;BME280;40937;53.594;10.034;2022-08-05T09:15:00;77484.97;;;-147.20;62.64
55038;BME280;40937;53.594;10.034;2022-08-05T09:17:27;77482.94;;;-147.20;63.22
55038;BME280;40937;53.594;10.034;2022-08-05T09:19:57;77497.06;;;-147.20;63.40
55038;BME280;40937;53.594;10.034;2022-08-05T09:22:24;77497.06;;;-147.20;63.96
55038;BME280;40937;53.594;10.034;2022-08-05T09:24:57;77493.03;;;-147.20;64.78
55038;BME280;40937;53.594;10.034;2022-08-05T09:27:32;77497.06;;;-147.20;64.57
55038;BME280;40937;53.594;10.034;2022-08-05T09:29:59;77486.97;;;-147.20;63.80
55038;BME280;40937;53.594;10.034;2022-08-05T09:32:36;77486.97;;;-147.20;63.60
55038;BME280;40937;53.594;10.034;2022-08-05T09:35:11;77493.03;;;-147.20;63.31
55038;BME280;40937;53.594;10.034;2022-08-05T09:37:48;77484.97;;;-147.20;63.19
55038;BME280;40937;53.594;10.034;2022-08-05T09:40:31;77480.91;;;-147.20;63.55
55038;BME280;40937;53.594;10.034;2022-08-05T09:42:59;77486.97;;;-147.20;63.69
55038;BME280;40937;53.594;10.034;2022-08-05T09:45:36;77482.94;;;-147.20;62.72
55038;BME280;40937;53.594;10.034;2022-08-05T09:48:22;77480.91;;;-147.20;62.08
55038;BME280;40937;53.594;10.034;2022-08-05T09:50:56;77486.97;;;-147.20;61.85
55038;BME280;40937;53.594;10.034;2022-08-05T09:53:24;77480.91;;;-147.20;62.43
55038;BME280;40937;53.594;10.034;2022-08-05T09:55:53;77484.97;;;-147.20;62.32
55038;BME280;40937;53.594;10.034;2022-08-05T09:58:20;77482.94;;;-147.20;62.20
55038;BME280;40937;53.594;10.034;2022-08-05T10:00:55;77484.97;;;-147.20;61.79
55038;BME280;40937;53.594;10.034;2022-08-05T10:03:22;77491.03;;;-147.20;61.77
55038;BME280;40937;53.594;10.034;2022-08-05T10:06:08;77484.97;;;-147.20;61.42
55038;BME280;40937;53.594;10.034;2022-08-05T10:08:36;77486.97;;;-147.20;60.62
55038;BME280;40937;53.594;10.034;2022-08-05T10:11:04;77495.06;;;-147.20;60.25
55038;BME280;40937;53.594;10.034;2022-08-05T10:13:33;77499.09;;;-147.20;60.24
55038;BME280;40937;53.594;10.034;2022-08-05T10:16:02;77505.16;;;-147.20;60.00
55038;BME280;40937;53.594;10.034;2022-08-05T10:18:29;77503.13;;;-147.20;60.00
55038;BME280;40937;53.594;10.034;2022-08-05T10:20:59;77507.16;;;-147.20;60.81
55038;BME280;40937;53.594;10.034;2022-08-05T10:23:29;77513.22;;;-147.20;61.43
55038;BME280;40937;53.594;10.034;2022-08-05T10:25:57;77509.19;;;-147.20;60.87
55038;BME280;40937;53.594;10.034;2022-08-05T10:28:25;77507.16;;;-147.20;61.17
55038;BME280;40937;53.594;10.034;2022-08-05T10:30:53;77509.19;;;-147.20;61.43
55038;BME280;40937;53.594;10.034;2022-08-05T10:33:20;77511.22;;;-147.20;61.56
55038;BME280;40937;53.594;10.034;2022-08-05T10:35:48;77511.22;;;-147.20;62.35
55038;BME280;40937;53.594;10.034;2022-08-05T10:38:17;77515.25;;;-147.20;61.78
55038;BME280;40937;53.594;10.034;2022-08-05T10:40:55;77509.19;;;-147.20;60.56
55038;BME280;40937;53.594;10.034;2022-08-05T10:43:32;77541.50;;;-147.20;60.55
55038;BME280;40937;53.594;10.034;2022-08-05T10:46:02;77537.44;;;-147.20;60.94
55038;BME280;40937;53.594;10.034;2022-08-05T10:48:34;77535.44;;;-147.20;62.16
55038;BME280;40937;53.594;10.034;2022-08-05T10:51:04;77541.50;;;-147.20;61.90
55038;BME280;40937;53.594;10.034;2022-08-05T10:53:36;77541.50;;;-147.20;62.49
55038;BME280;40937;53.594;10.034;2022-08-05T10:56:07;77553.59;;;-147.20;62.71
55038;BME280;40937;53.594;10.034;2022-08-05T10:58:34;77557.63;;;-147.20;63.29
55038;BME280;40937;53.594;10.034;2022-08-05T11:01:05;77557.63;;;-147.20;63.25
55038;BME280;40937;53.594;10.034;2022-08-05T11:03:32;77561.69;;;-147.20;63.31
55038;BME280;40937;53.594;10.034;2022-08-05T11:06:04;77575.81;;;-147.20;62.54
55038;BME280;40937;53.594;10.034;2022-08-05T11:08:31;77579.84;;;-147.20;62.98
55038;BME280;40937;53.594;10.034;2022-08-05T11:11:33;77585.91;;;-147.20;64.18
55038;BME280;40937;53.594;10.034;2022-08-05T11:14:03;77606.09;;;-147.20;64.14
55038;BME280;40937;53.594;10.034;2022-08-05T11:16:30;77600.03;;;-147.20;63.97
55038;BME280;40937;53.594;10.034;2022-08-05T11:19:25;77600.03;;;-147.20;63.69
55038;BME280;40937;53.594;10.034;2022-08-05T11:21:53;77600.03;;;-147.20;63.14
55038;BME280;40937;53.594;10.034;2022-08-05T11:24:20;77606.09;;;-147.20;61.92
55038;BME280;40937;53.594;10.034;2022-08-05T11:26:51;77608.13;;;-147.20;60.36
55038;BME280;40937;53.594;10.034;2022-08-05T11:29:38;77630.31;;;-147.20;61.16
55038;BME280;40937;53.594;10.034;2022-08-05T11:32:25;77626.28;;;-147.20;61.26
55038;BME280;40937;53.594;10.034;2022-08-05T11:34:52;77644.44;;;-147.20;61.49
55038;BME280;40937;53.594;10.034;2022-08-05T11:40:55;77648.50;;;-147.20;61.37
55038;BME280;40937;53.594;10.034;2022-08-05T11:43:23;77668.69;;;-147.20;61.69
55038;BME280;40937;53.594;10.034;2022-08-05T11:45:50;77678.78;;;-147.20;61.43
55038;BME280;40937;53.594;10.034;2022-08-05T11:48:17;77678.78;;;-147.20;60.72
55038;BME280;40937;53.594;10.034;2022-08-05T11:50:46;77692.91;;;-147.20;61.38
55038;BME280;40937;53.594;10.034;2022-08-05T11:53:13;77698.97;;;-147.20;61.92
55038;BME280;40937;53.594;10.034;2022-08-05T11:55:52;77686.84;;;-147.20;61.95
55038;BME280;40937;53.594;10.034;2022-08-05T11:58:27;77694.94;;;-147.20;62.29
55038;BME280;40937;53.594;10.034;2022-08-05T12:01:01;77698.97;;;-147.20;61.13
55038;BME280;40937;53.594;10.034;2022-08-05T12:03:28;77705.03;;;-147.20;62.13
55038;BME280;40937;53.594;10.034;2022-08-05T12:06:00;77692.91;;;-147.20;61.93
55038;BME280;40937;53.594;10.034;2022-08-05T12:08:27;77694.94;;;-147.20;61.41
55038;BME280;40937;53.594;10.034;2022-08-05T12:10:56;77700.97;;;-147.20;61.91
55038;BME280;40937;53.594;10.034;2022-08-05T12:13:25;77698.97;;;-147.20;62.14
55038;BME280;40937;53.594;10.034;2022-08-05T12:15:52;77703.00;;;-147.20;61.80
55038;BME280;40937;53.594;10.034;2022-08-05T12:18:18;77696.94;;;-147.20;62.08
55038;BME280;40937;53.594;10.034;2022-08-05T12:20:53;77692.91;;;-147.20;61.55
55038;BME280;40937;53.594;10.034;2022-08-05T12:23:19;77696.94;;;-147.20;62.37
55038;BME280;40937;53.594;10.034;2022-08-05T12:25:50;77698.97;;;-147.20;62.79
55038;BME280;40937;53.594;10.034;2022-08-05T12:28:32;77700.97;;;-147.20;63.29
55038;BME280;40937;53.594;10.034;2022-08-05T12:31:00;77696.94;;;-147.20;63.09
55038;BME280;40937;53.594;10.034;2022-08-05T12:33:27;77684.84;;;-147.20;63.63
55038;BME280;40937;53.594;10.034;2022-08-05T12:35:54;77682.81;;;-147.20;63.75
55038;BME280;40937;53.594;10.034;2022-08-05T12:38:21;77688.88;;;-147.20;63.23
55038;BME280;40937;53.594;10.034;2022-08-05T12:40:48;77688.88;;;-147.20;63.68
55038;BME280;40937;53.594;10.034;2022-08-05T12:43:15;77666.66;;;-147.20;63.52